sensor_id;sensor_type;location;lat;lon;timestamp;P1;durP1;ratioP1;P2;durP2;ratioP2
67554;SDS011;54385;53.516;49.456;2024-03-29T00:01:35;1.05;;;0.82;;
67554;SDS011;54385;53.516;49.456;2024-03-29T00:04:01;1.02;;;0.73;;
67554;SDS011;54385;53.516;49.456;2024-03-29T00:06:28;1.08;;;0.77;;
67554;SDS011;54385;53.516;49.456;2024-03-29T00:08:54;1.52;;;0.95;;
67554;SDS011;54385;53.516;49.456;2024-03-29T00:11:21;0.90;;;0.57;;
67554;SDS011;54385;53.516;49.456;2024-03-29T00:13:47;1.08;;;0.70;;
67554;SDS011;54385;53.516;49.456;2024-03-29T00:16:14;0.60;;;0.47;;
67554;SDS011;54385;53.516;49.456;2024-03-29T00:18:40;1.00;;;0.70;;
67554;SDS011;54385;53.516;49.456;2024-03-29T00:21:06;0.45;;;0.43;;
67554;SDS011;54385;53.516;49.456;2024-03-29T00:23:33;0.90;;;0.55;;
67554;SDS011;54385;53.516;49.456;2024-03-29T00:26:00;0.52;;;0.50;;
67554;SDS011;54385;53.516;49.456;2024-03-29T00:28:26;1.30;;;0.70;;
67554;SDS011;54385;53.516;49.456;2024-03-29T00:30:52;1.10;;;0.82;;
67554;SDS011;54385;53.516;49.456;2024-03-29T00:33:19;1.13;;;0.70;;
67554;SDS011;54385;53.516;49.456;2024-03-29T00:35:46;0.75;;;0.70;;
67554;SDS011;54385;53.516;49.456;2024-03-29T00:38:12;1.13;;;0.63;;
67554;SDS011;54385;53.516;49.456;2024-03-29T00:40:39;0.60;;;0.45;;
67554;SDS011;54385;53.516;49.456;2024-03-29T00:43:06;1.52;;;0.70;;
67554;SDS011;54385;53.516;49.456;2024-03-29T00:45:33;0.88;;;0.60;;
67554;SDS011;54385;53.516;49.456;2024-03-29T00:47:59;0.88;;;0.68;;
67554;SDS011;54385;53.516;49.456;2024-03-29T00:50:28;1.15;;;0.60;;
67554;SDS011;54385;53.516;49.456;2024-03-29T00:52:59;0.80;;;0.60;;
67554;SDS011;54385;53.516;49.456;2024-03-29T00:55:26;0.60;;;0.50;;
67554;SDS011;54385;53.516;49.456;2024-03-29T00:57:52;0.70;;;0.60;;
67554;SDS011;54385;53.516;49.456;2024-03-29T01:00:19;1.05;;;0.60;;
67554;SDS011;54385;53.516;49.456;2024-03-29T01:02:45;0.80;;;0.57;;
67554;SDS011;54385;53.516;49.456;2024-03-29T01:05:12;1.02;;;0.70;;
67554;SDS011;54385;53.516;49.456;2024-03-29T01:07:41;0.98;;;0.70;;
67554;SDS011;54385;53.516;49.456;2024-03-29T01:10:08;0.55;;;0.50;;
67554;SDS011;54385;53.516;49.456;2024-03-29T01:12:38;0.80;;;0.70;;
67554;SDS011;54385;53.516;49.456;2024-03-29T01:15:05;0.93;;;0.60;;
67554;SDS011;54385;53.516;49.456;2024-03-29T01:17:32;1.00;;;0.75;;
67554;SDS011;54385;53.516;49.456;2024-03-29T01:19:58;1.00;;;0.60;;
67554;SDS011;54385;53.516;49.456;2024-03-29T01:22:25;0.80;;;0.65;;
67554;SDS011;54385;53.516;49.456;2024-03-29T01:24:52;1.13;;;0.80;;
67554;SDS011;54385;53.516;49.456;2024-03-29T01:27:18;0.75;;;0.70;;
67554;SDS011;54385;53.516;49.456;2024-03-29T01:29:44;0.80;;;0.60;;
67554;SDS011;54385;53.516;49.456;2024-03-29T01:32:11;0.80;;;0.70;;
67554;SDS011;54385;53.516;49.456;2024-03-29T01:34:37;0.55;;;0.50;;
67554;SDS011;54385;53.516;49.456;2024-03-29T01:37:04;1.17;;;0.60;;
67554;SDS011;54385;53.516;49.456;2024-03-29T01:39:32;0.82;;;0.60;;
67554;SDS011;54385;53.516;49.456;2024-03-29T01:41:59;0.88;;;0.60;;
67554;SDS011;54385;53.516;49.456;2024-03-29T01:44:25;0.98;;;0.70;;
67554;SDS011;54385;53.516;49.456;2024-03-29T01:46:51;0.77;;;0.60;;
67554;SDS011;54385;53.516;49.456;2024-03-29T01:49:18;1.25;;;0.70;;
67554;SDS011;54385;53.516;49.456;2024-03-29T01:51:44;1.75;;;0.55;;
67554;SDS011;54385;53.516;49.456;2024-03-29T01:54:11;0.93;;;0.52;;
67554;SDS011;54385;53.516;49.456;2024-03-29T01:56:39;0.98;;;0.70;;
67554;SDS011;54385;53.516;49.456;2024-03-29T01:59:10;1.00;;;0.70;;
67554;SDS011;54385;53.516;49.456;2024-03-29T02:01:41;1.00;;;0.60;;
67554;SDS011;54385;53.516;49.456;2024-03-29T02:04:08;0.60;;;0.50;;
67554;SDS011;54385;53.516;49.456;2024-03-29T02:06:36;1.42;;;0.80;;
67554;SDS011;54385;53.516;49.456;2024-03-29T02:09:04;1.00;;;0.80;;
67554;SDS011;54385;53.516;49.456;2024-03-29T02:11:31;0.82;;;0.63;;
67554;SDS011;54385;53.516;49.456;2024-03-29T02:13:58;1.20;;;0.80;;
67554;SDS011;54385;53.516;49.456;2024-03-29T02:16:25;1.23;;;0.70;;
67554;SDS011;54385;53.516;49.456;2024-03-29T02:18:51;0.80;;;0.50;;
67554;SDS011;54385;53.516;49.456;2024-03-29T02:21:18;1.67;;;0.80;;
67554;SDS011;54385;53.516;49.456;2024-03-29T02:23:44;0.82;;;0.63;;
67554;SDS011;54385;53.516;49.456;2024-03-29T02:26:13;1.00;;;0.60;;
67554;SDS011;54385;53.516;49.456;2024-03-29T02:28:39;1.50;;;0.90;;
67554;SDS011;54385;53.516;49.456;2024-03-29T02:31:06;1.23;;;0.63;;
67554;SDS011;54385;53.516;49.456;2024-03-29T02:33:33;0.95;;;0.85;;
67554;SDS011;54385;53.516;49.456;2024-03-29T02:36:00;1.40;;;0.70;;
67554;SDS011;54385;53.516;49.456;2024-03-29T02:38:26;1.00;;;0.80;;
67554;SDS011;54385;53.516;49.456;2024-03-29T02:40:53;1.27;;;0.80;;
67554;SDS011;54385;53.516;49.456;2024-03-29T02:43:19;1.60;;;0.80;;
67554;SDS011;54385;53.516;49.456;2024-03-29T02:45:45;1.30;;;0.80;;
67554;SDS011;54385;53.516;49.456;2024-03-29T02:48:12;0.73;;;0.60;;
67554;SDS011;54385;53.516;49.456;2024-03-29T02:50:38;0.98;;;0.57;;
67554;SDS011;54385;53.516;49.456;2024-03-29T02:53:04;1.17;;;0.77;;
67554;SDS011;54385;53.516;49.456;2024-03-29T02:55:31;0.73;;;0.57;;
67554;SDS011;54385;53.516;49.456;2024-03-29T02:57:57;1.10;;;0.75;;
67554;SDS011;54385;53.516;49.456;2024-03-29T03:00:24;1.20;;;0.70;;
67554;SDS011;54385;53.516;49.456;2024-03-29T03:02:50;0.98;;;0.70;;
67554;SDS011;54385;53.516;49.456;2024-03-29T03:05:16;1.17;;;0.73;;
67554;SDS011;54385;53.516;49.456;2024-03-29T03:07:43;1.52;;;0.82;;
67554;SDS011;54385;53.516;49.456;2024-03-29T03:10:28;1.50;;;0.70;;
67554;SDS011;54385;53.516;49.456;2024-03-29T03:13:13;0.80;;;0.60;;
67554;SDS011;54385;53.516;49.456;2024-03-29T03:15:39;0.95;;;0.60;;
67554;SDS011;54385;53.516;49.456;2024-03-29T03:18:06;1.08;;;0.60;;
67554;SDS011;54385;53.516;49.456;2024-03-29T03:20:34;1.23;;;0.70;;
67554;SDS011;54385;53.516;49.456;2024-03-29T03:23:00;0.90;;;0.70;;
67554;SDS011;54385;53.516;49.456;2024-03-29T03:25:27;1.45;;;0.93;;
67554;SDS011;54385;53.516;49.456;2024-03-29T03:27:53;1.02;;;0.60;;
67554;SDS011;54385;53.516;49.456;2024-03-29T03:30:20;0.88;;;0.65;;
67554;SDS011;54385;53.516;49.456;2024-03-29T03:32:47;1.05;;;0.90;;
67554;SDS011;54385;53.516;49.456;2024-03-29T03:35:14;0.82;;;0.63;;
67554;SDS011;54385;53.516;49.456;2024-03-29T03:37:40;1.20;;;0.77;;
67554;SDS011;54385;53.516;49.456;2024-03-29T03:40:07;1.05;;;0.80;;
67554;SDS011;54385;53.516;49.456;2024-03-29T03:42:37;2.50;;;0.98;;
67554;SDS011;54385;53.516;49.456;2024-03-29T03:45:03;2.83;;;1.00;;
67554;SDS011;54385;53.516;49.456;2024-03-29T03:47:30;1.48;;;1.00;;
67554;SDS011;54385;53.516;49.456;2024-03-29T03:49:56;1.58;;;1.15;;
67554;SDS011;54385;53.516;49.456;2024-03-29T03:52:23;1.50;;;0.88;;
67554;SDS011;54385;53.516;49.456;2024-03-29T03:54:51;2.97;;;1.20;;
67554;SDS011;54385;53.516;49.456;2024-03-29T03:57:17;2.83;;;1.02;;
67554;SDS011;54385;53.516;49.456;2024-03-29T03:59:43;1.73;;;0.90;;
67554;SDS011;54385;53.516;49.456;2024-03-29T04:02:13;1.85;;;1.33;;
67554;SDS011;54385;53.516;49.456;2024-03-29T04:04:40;2.97;;;1.30;;
67554;SDS011;54385;53.516;49.456;2024-03-29T04:07:07;1.83;;;1.25;;
67554;SDS011;54385;53.516;49.456;2024-03-29T04:09:38;3.05;;;1.48;;
67554;SDS011;54385;53.516;49.456;2024-03-29T04:12:07;3.58;;;1.60;;
67554;SDS011;54385;53.516;49.456;2024-03-29T04:14:55;2.78;;;1.50;;
67554;SDS011;54385;53.516;49.456;2024-03-29T04:17:24;5.57;;;1.50;;
67554;SDS011;54385;53.516;49.456;2024-03-29T04:19:54;4.85;;;1.75;;
67554;SDS011;54385;53.516;49.456;2024-03-29T04:22:21;5.93;;;2.00;;
67554;SDS011;54385;53.516;49.456;2024-03-29T04:24:58;6.50;;;2.15;;
67554;SDS011;54385;53.516;49.456;2024-03-29T04:27:27;4.07;;;2.03;;
67554;SDS011;54385;53.516;49.456;2024-03-29T04:29:54;3.63;;;2.20;;
67554;SDS011;54385;53.516;49.456;2024-03-29T04:32:21;5.13;;;2.60;;
67554;SDS011;54385;53.516;49.456;2024-03-29T04:34:48;5.30;;;2.72;;
67554;SDS011;54385;53.516;49.456;2024-03-29T04:37:15;8.13;;;2.78;;
67554;SDS011;54385;53.516;49.456;2024-03-29T04:39:45;5.03;;;2.90;;
67554;SDS011;54385;53.516;49.456;2024-03-29T04:42:12;5.05;;;2.58;;
67554;SDS011;54385;53.516;49.456;2024-03-29T04:44:40;4.22;;;2.65;;
67554;SDS011;54385;53.516;49.456;2024-03-29T04:47:08;6.05;;;2.80;;
67554;SDS011;54385;53.516;49.456;2024-03-29T04:49:34;5.82;;;2.80;;
67554;SDS011;54385;53.516;49.456;2024-03-29T04:52:08;6.18;;;3.08;;
67554;SDS011;54385;53.516;49.456;2024-03-29T04:54:40;3.83;;;2.60;;
67554;SDS011;54385;53.516;49.456;2024-03-29T04:57:06;8.55;;;3.20;;
67554;SDS011;54385;53.516;49.456;2024-03-29T04:59:34;8.82;;;3.45;;
67554;SDS011;54385;53.516;49.456;2024-03-29T05:02:01;8.43;;;3.15;;
67554;SDS011;54385;53.516;49.456;2024-03-29T05:04:29;6.38;;;3.67;;
67554;SDS011;54385;53.516;49.456;2024-03-29T05:06:56;7.10;;;3.10;;
67554;SDS011;54385;53.516;49.456;2024-03-29T05:09:23;8.30;;;3.13;;
67554;SDS011;54385;53.516;49.456;2024-03-29T05:11:51;8.55;;;3.08;;
67554;SDS011;54385;53.516;49.456;2024-03-29T05:14:19;6.72;;;2.80;;
67554;SDS011;54385;53.516;49.456;2024-03-29T05:16:48;7.72;;;3.20;;
67554;SDS011;54385;53.516;49.456;2024-03-29T05:19:15;7.95;;;2.75;;
67554;SDS011;54385;53.516;49.456;2024-03-29T05:21:42;7.03;;;3.50;;
67554;SDS011;54385;53.516;49.456;2024-03-29T05:24:08;8.73;;;3.40;;
67554;SDS011;54385;53.516;49.456;2024-03-29T05:26:41;8.13;;;3.30;;
67554;SDS011;54385;53.516;49.456;2024-03-29T05:29:11;9.05;;;3.60;;
67554;SDS011;54385;53.516;49.456;2024-03-29T05:31:38;8.10;;;3.03;;
67554;SDS011;54385;53.516;49.456;2024-03-29T05:34:07;6.97;;;3.35;;
67554;SDS011;54385;53.516;49.456;2024-03-29T05:36:36;6.57;;;3.35;;
67554;SDS011;54385;53.516;49.456;2024-03-29T05:39:02;7.25;;;3.38;;
67554;SDS011;54385;53.516;49.456;2024-03-29T05:41:29;6.75;;;3.20;;
67554;SDS011;54385;53.516;49.456;2024-03-29T05:43:57;7.03;;;3.35;;
67554;SDS011;54385;53.516;49.456;2024-03-29T05:46:24;8.05;;;3.88;;
67554;SDS011;54385;53.516;49.456;2024-03-29T05:48:50;7.28;;;3.22;;
67554;SDS011;54385;53.516;49.456;2024-03-29T05:51:17;8.35;;;3.42;;
67554;SDS011;54385;53.516;49.456;2024-03-29T05:53:44;6.82;;;3.40;;
67554;SDS011;54385;53.516;49.456;2024-03-29T05:56:10;4.70;;;3.58;;
67554;SDS011;54385;53.516;49.456;2024-03-29T05:58:37;6.82;;;3.45;;
67554;SDS011;54385;53.516;49.456;2024-03-29T06:01:06;7.35;;;3.42;;
67554;SDS011;54385;53.516;49.456;2024-03-29T06:03:33;6.90;;;3.40;;
67554;SDS011;54385;53.516;49.456;2024-03-29T06:05:59;6.05;;;3.22;;
67554;SDS011;54385;53.516;49.456;2024-03-29T06:08:26;8.50;;;3.35;;
67554;SDS011;54385;53.516;49.456;2024-03-29T06:10:53;11.57;;;3.50;;
67554;SDS011;54385;53.516;49.456;2024-03-29T06:13:20;5.82;;;3.25;;
67554;SDS011;54385;53.516;49.456;2024-03-29T06:16:16;8.07;;;3.90;;
67554;SDS011;54385;53.516;49.456;2024-03-29T06:19:01;6.07;;;3.30;;
67554;SDS011;54385;53.516;49.456;2024-03-29T06:21:28;6.80;;;3.22;;
67554;SDS011;54385;53.516;49.456;2024-03-29T06:23:54;7.03;;;3.05;;
67554;SDS011;54385;53.516;49.456;2024-03-29T06:26:21;7.43;;;3.30;;
67554;SDS011;54385;53.516;49.456;2024-03-29T06:28:47;4.95;;;3.05;;
67554;SDS011;54385;53.516;49.456;2024-03-29T06:31:14;5.88;;;3.50;;
67554;SDS011;54385;53.516;49.456;2024-03-29T06:33:40;9.18;;;3.67;;
67554;SDS011;54385;53.516;49.456;2024-03-29T06:36:07;6.57;;;3.30;;
67554;SDS011;54385;53.516;49.456;2024-03-29T06:38:36;4.72;;;3.28;;
67554;SDS011;54385;53.516;49.456;2024-03-29T06:41:03;5.97;;;3.58;;
67554;SDS011;54385;53.516;49.456;2024-03-29T06:43:29;7.13;;;3.78;;
67554;SDS011;54385;53.516;49.456;2024-03-29T06:45:56;5.72;;;3.42;;
67554;SDS011;54385;53.516;49.456;2024-03-29T06:48:24;8.68;;;3.88;;
67554;SDS011;54385;53.516;49.456;2024-03-29T06:50:51;6.00;;;3.10;;
67554;SDS011;54385;53.516;49.456;2024-03-29T06:53:20;5.88;;;3.28;;
67554;SDS011;54385;53.516;49.456;2024-03-29T06:55:47;5.32;;;3.03;;
67554;SDS011;54385;53.516;49.456;2024-03-29T06:58:15;6.35;;;3.25;;
67554;SDS011;54385;53.516;49.456;2024-03-29T07:00:43;9.27;;;3.58;;
67554;SDS011;54385;53.516;49.456;2024-03-29T07:03:13;5.47;;;3.40;;
67554;SDS011;54385;53.516;49.456;2024-03-29T07:05:40;6.45;;;3.63;;
67554;SDS011;54385;53.516;49.456;2024-03-29T07:08:06;5.22;;;3.20;;
67554;SDS011;54385;53.516;49.456;2024-03-29T07:10:34;5.03;;;3.10;;
67554;SDS011;54385;53.516;49.456;2024-03-29T07:13:00;4.55;;;3.33;;
67554;SDS011;54385;53.516;49.456;2024-03-29T07:15:27;5.20;;;3.60;;
67554;SDS011;54385;53.516;49.456;2024-03-29T07:17:53;7.10;;;3.17;;
67554;SDS011;54385;53.516;49.456;2024-03-29T07:20:20;5.07;;;3.40;;
67554;SDS011;54385;53.516;49.456;2024-03-29T07:22:47;6.65;;;3.25;;
67554;SDS011;54385;53.516;49.456;2024-03-29T07:25:14;4.43;;;3.10;;
67554;SDS011;54385;53.516;49.456;2024-03-29T07:27:40;5.75;;;3.55;;
67554;SDS011;54385;53.516;49.456;2024-03-29T07:30:07;5.28;;;3.47;;
67554;SDS011;54385;53.516;49.456;2024-03-29T07:32:34;4.80;;;3.33;;
67554;SDS011;54385;53.516;49.456;2024-03-29T07:35:00;4.35;;;2.97;;
67554;SDS011;54385;53.516;49.456;2024-03-29T07:37:28;5.68;;;3.10;;
67554;SDS011;54385;53.516;49.456;2024-03-29T07:39:55;4.35;;;3.13;;
67554;SDS011;54385;53.516;49.456;2024-03-29T07:42:25;5.72;;;3.35;;
67554;SDS011;54385;53.516;49.456;2024-03-29T07:44:51;6.35;;;3.60;;
67554;SDS011;54385;53.516;49.456;2024-03-29T07:47:18;6.45;;;3.45;;
67554;SDS011;54385;53.516;49.456;2024-03-29T07:49:47;4.47;;;3.10;;
67554;SDS011;54385;53.516;49.456;2024-03-29T07:52:14;5.38;;;3.08;;
67554;SDS011;54385;53.516;49.456;2024-03-29T07:54:45;5.20;;;3.13;;
67554;SDS011;54385;53.516;49.456;2024-03-29T07:57:12;6.55;;;2.80;;
67554;SDS011;54385;53.516;49.456;2024-03-29T07:59:43;5.05;;;3.67;;
67554;SDS011;54385;53.516;49.456;2024-03-29T08:02:12;5.15;;;3.17;;
67554;SDS011;54385;53.516;49.456;2024-03-29T08:04:43;4.32;;;2.90;;
67554;SDS011;54385;53.516;49.456;2024-03-29T08:07:10;3.88;;;2.90;;
67554;SDS011;54385;53.516;49.456;2024-03-29T08:09:38;4.97;;;2.60;;
67554;SDS011;54385;53.516;49.456;2024-03-29T08:12:10;5.20;;;3.05;;
67554;SDS011;54385;53.516;49.456;2024-03-29T08:14:37;6.30;;;3.35;;
67554;SDS011;54385;53.516;49.456;2024-03-29T08:17:03;4.80;;;3.20;;
67554;SDS011;54385;53.516;49.456;2024-03-29T08:19:33;5.13;;;3.10;;
67554;SDS011;54385;53.516;49.456;2024-03-29T08:22:00;6.60;;;3.03;;
67554;SDS011;54385;53.516;49.456;2024-03-29T08:24:35;5.30;;;2.80;;
67554;SDS011;54385;53.516;49.456;2024-03-29T08:27:02;5.50;;;2.67;;
67554;SDS011;54385;53.516;49.456;2024-03-29T08:29:28;4.55;;;3.10;;
67554;SDS011;54385;53.516;49.456;2024-03-29T08:31:55;5.53;;;3.15;;
67554;SDS011;54385;53.516;49.456;2024-03-29T08:34:22;4.65;;;3.20;;
67554;SDS011;54385;53.516;49.456;2024-03-29T08:36:48;3.70;;;2.83;;
67554;SDS011;54385;53.516;49.456;2024-03-29T08:39:15;6.40;;;3.35;;
67554;SDS011;54385;53.516;49.456;2024-03-29T08:41:42;3.88;;;2.63;;
67554;SDS011;54385;53.516;49.456;2024-03-29T08:44:11;4.15;;;3.03;;
67554;SDS011;54385;53.516;49.456;2024-03-29T08:46:37;4.50;;;3.20;;
67554;SDS011;54385;53.516;49.456;2024-03-29T08:49:04;5.03;;;3.00;;
67554;SDS011;54385;53.516;49.456;2024-03-29T08:51:33;3.97;;;3.00;;
67554;SDS011;54385;53.516;49.456;2024-03-29T08:54:00;4.30;;;3.05;;
67554;SDS011;54385;53.516;49.456;2024-03-29T08:56:33;4.57;;;2.85;;
67554;SDS011;54385;53.516;49.456;2024-03-29T08:59:03;3.90;;;3.00;;
67554;SDS011;54385;53.516;49.456;2024-03-29T09:01:34;4.07;;;2.63;;
67554;SDS011;54385;53.516;49.456;2024-03-29T09:04:14;5.55;;;3.40;;
67554;SDS011;54385;53.516;49.456;2024-03-29T09:06:42;4.88;;;2.85;;
67554;SDS011;54385;53.516;49.456;2024-03-29T09:09:09;5.60;;;2.55;;
67554;SDS011;54385;53.516;49.456;2024-03-29T09:11:36;4.38;;;3.05;;
67554;SDS011;54385;53.516;49.456;2024-03-29T09:14:03;6.95;;;3.13;;
67554;SDS011;54385;53.516;49.456;2024-03-29T09:16:30;4.97;;;3.13;;
67554;SDS011;54385;53.516;49.456;2024-03-29T09:18:56;4.53;;;2.90;;
67554;SDS011;54385;53.516;49.456;2024-03-29T09:21:23;3.72;;;2.90;;
67554;SDS011;54385;53.516;49.456;2024-03-29T09:23:49;5.18;;;2.78;;
67554;SDS011;54385;53.516;49.456;2024-03-29T09:26:18;4.25;;;3.00;;
67554;SDS011;54385;53.516;49.456;2024-03-29T09:28:45;4.15;;;2.80;;
67554;SDS011;54385;53.516;49.456;2024-03-29T09:31:11;4.55;;;3.10;;
67554;SDS011;54385;53.516;49.456;2024-03-29T09:33:38;3.92;;;2.80;;
67554;SDS011;54385;53.516;49.456;2024-03-29T09:36:04;5.50;;;3.03;;
67554;SDS011;54385;53.516;49.456;2024-03-29T09:38:31;3.92;;;2.63;;
67554;SDS011;54385;53.516;49.456;2024-03-29T09:41:07;3.45;;;2.45;;
67554;SDS011;54385;53.516;49.456;2024-03-29T09:43:39;4.25;;;2.72;;
67554;SDS011;54385;53.516;49.456;2024-03-29T09:46:10;3.20;;;2.50;;
67554;SDS011;54385;53.516;49.456;2024-03-29T09:48:39;4.68;;;3.22;;
67554;SDS011;54385;53.516;49.456;2024-03-29T09:51:07;4.85;;;2.97;;
67554;SDS011;54385;53.516;49.456;2024-03-29T09:53:35;4.53;;;3.03;;
67554;SDS011;54385;53.516;49.456;2024-03-29T09:56:06;4.53;;;2.53;;
67554;SDS011;54385;53.516;49.456;2024-03-29T09:58:33;5.07;;;2.78;;
67554;SDS011;54385;53.516;49.456;2024-03-29T10:01:05;3.60;;;2.80;;
67554;SDS011;54385;53.516;49.456;2024-03-29T10:03:34;3.40;;;2.78;;
67554;SDS011;54385;53.516;49.456;2024-03-29T10:06:05;3.83;;;2.63;;
67554;SDS011;54385;53.516;49.456;2024-03-29T10:08:34;4.00;;;2.30;;
67554;SDS011;54385;53.516;49.456;2024-03-29T10:11:02;4.55;;;2.83;;
67554;SDS011;54385;53.516;49.456;2024-03-29T10:13:29;4.60;;;3.03;;
67554;SDS011;54385;53.516;49.456;2024-03-29T10:15:55;4.95;;;2.75;;
67554;SDS011;54385;53.516;49.456;2024-03-29T10:18:23;4.47;;;2.90;;
67554;SDS011;54385;53.516;49.456;2024-03-29T10:21:03;3.65;;;2.70;;
67554;SDS011;54385;53.516;49.456;2024-03-29T10:23:31;3.38;;;2.40;;
67554;SDS011;54385;53.516;49.456;2024-03-29T10:25:58;3.83;;;2.60;;
67554;SDS011;54385;53.516;49.456;2024-03-29T10:28:27;3.95;;;2.92;;
67554;SDS011;54385;53.516;49.456;2024-03-29T10:31:01;3.45;;;2.63;;
67554;SDS011;54385;53.516;49.456;2024-03-29T10:33:31;3.80;;;2.83;;
67554;SDS011;54385;53.516;49.456;2024-03-29T10:35:59;3.45;;;2.60;;
67554;SDS011;54385;53.516;49.456;2024-03-29T10:38:26;3.20;;;2.58;;
67554;SDS011;54385;53.516;49.456;2024-03-29T10:40:53;4.00;;;3.00;;
67554;SDS011;54385;53.516;49.456;2024-03-29T10:43:20;4.40;;;2.80;;
67554;SDS011;54385;53.516;49.456;2024-03-29T10:45:47;3.17;;;2.58;;
67554;SDS011;54385;53.516;49.456;2024-03-29T10:48:16;2.95;;;2.40;;
67554;SDS011;54385;53.516;49.456;2024-03-29T10:50:43;4.00;;;2.78;;
67554;SDS011;54385;53.516;49.456;2024-03-29T10:53:14;3.25;;;2.53;;
67554;SDS011;54385;53.516;49.456;2024-03-29T10:55:43;3.47;;;2.58;;
67554;SDS011;54385;53.516;49.456;2024-03-29T10:58:10;4.05;;;2.90;;
67554;SDS011;54385;53.516;49.456;2024-03-29T11:00:38;3.35;;;3.00;;
67554;SDS011;54385;53.516;49.456;2024-03-29T11:03:13;3.88;;;2.47;;
67554;SDS011;54385;53.516;49.456;2024-03-29T11:05:49;3.92;;;3.03;;
67554;SDS011;54385;53.516;49.456;2024-03-29T11:08:17;3.45;;;2.60;;
67554;SDS011;54385;53.516;49.456;2024-03-29T11:10:50;3.50;;;2.60;;
67554;SDS011;54385;53.516;49.456;2024-03-29T11:16:11;3.80;;;2.55;;
67554;SDS011;54385;53.516;49.456;2024-03-29T11:18:38;2.75;;;2.42;;
67554;SDS011;54385;53.516;49.456;2024-03-29T11:21:07;3.22;;;2.67;;
67554;SDS011;54385;53.516;49.456;2024-03-29T11:23:38;2.42;;;2.20;;
67554;SDS011;54385;53.516;49.456;2024-03-29T11:26:08;4.32;;;2.63;;
67554;SDS011;54385;53.516;49.456;2024-03-29T11:28:35;3.30;;;2.60;;
67554;SDS011;54385;53.516;49.456;2024-03-29T11:31:07;2.60;;;2.38;;
67554;SDS011;54385;53.516;49.456;2024-03-29T11:33:35;3.15;;;2.30;;
67554;SDS011;54385;53.516;49.456;2024-03-29T11:38:37;2.92;;;2.30;;
67554;SDS011;54385;53.516;49.456;2024-03-29T11:41:06;4.03;;;2.88;;
67554;SDS011;54385;53.516;49.456;2024-03-29T11:43:35;3.28;;;2.45;;
67554;SDS011;54385;53.516;49.456;2024-03-29T11:46:05;3.47;;;2.75;;
67554;SDS011;54385;53.516;49.456;2024-03-29T11:48:33;3.63;;;2.75;;
67554;SDS011;54385;53.516;49.456;2024-03-29T11:51:01;3.03;;;2.40;;
67554;SDS011;54385;53.516;49.456;2024-03-29T11:53:29;3.00;;;2.50;;
67554;SDS011;54385;53.516;49.456;2024-03-29T11:55:57;2.95;;;2.35;;
67554;SDS011;54385;53.516;49.456;2024-03-29T11:58:24;3.08;;;2.67;;
67554;SDS011;54385;53.516;49.456;2024-03-29T12:00:52;3.40;;;2.47;;
67554;SDS011;54385;53.516;49.456;2024-03-29T12:03:19;4.32;;;2.67;;
67554;SDS011;54385;53.516;49.456;2024-03-29T12:05:48;3.40;;;2.67;;
67554;SDS011;54385;53.516;49.456;2024-03-29T12:08:21;3.63;;;2.63;;
67554;SDS011;54385;53.516;49.456;2024-03-29T12:10:48;3.05;;;2.28;;
67554;SDS011;54385;53.516;49.456;2024-03-29T12:13:15;2.72;;;2.40;;
67554;SDS011;54385;53.516;49.456;2024-03-29T12:15:43;3.55;;;2.88;;
67554;SDS011;54385;53.516;49.456;2024-03-29T12:18:10;2.63;;;2.33;;
67554;SDS011;54385;53.516;49.456;2024-03-29T12:20:39;2.65;;;2.22;;
67554;SDS011;54385;53.516;49.456;2024-03-29T12:23:06;2.67;;;2.42;;
67554;SDS011;54385;53.516;49.456;2024-03-29T12:25:35;3.13;;;2.55;;
67554;SDS011;54385;53.516;49.456;2024-03-29T12:28:03;2.90;;;2.65;;
67554;SDS011;54385;53.516;49.456;2024-03-29T12:30:30;3.92;;;2.53;;
67554;SDS011;54385;53.516;49.456;2024-03-29T12:33:11;2.72;;;2.35;;
67554;SDS011;54385;53.516;49.456;2024-03-29T12:35:42;3.42;;;2.45;;
67554;SDS011;54385;53.516;49.456;2024-03-29T12:38:15;2.90;;;2.45;;
67554;SDS011;54385;53.516;49.456;2024-03-29T12:40:43;2.30;;;2.05;;
67554;SDS011;54385;53.516;49.456;2024-03-29T12:43:10;3.00;;;2.47;;
67554;SDS011;54385;53.516;49.456;2024-03-29T12:45:40;3.67;;;2.50;;
67554;SDS011;54385;53.516;49.456;2024-03-29T12:48:11;2.55;;;2.30;;
67554;SDS011;54385;53.516;49.456;2024-03-29T12:50:40;3.08;;;2.28;;
67554;SDS011;54385;53.516;49.456;2024-03-29T12:53:11;2.42;;;2.22;;
67554;SDS011;54385;53.516;49.456;2024-03-29T12:55:44;2.40;;;2.20;;
67554;SDS011;54385;53.516;49.456;2024-03-29T12:58:13;2.65;;;2.25;;
67554;SDS011;54385;53.516;49.456;2024-03-29T13:00:41;3.63;;;2.65;;
67554;SDS011;54385;53.516;49.456;2024-03-29T13:03:08;2.85;;;2.30;;
67554;SDS011;54385;53.516;49.456;2024-03-29T13:05:39;2.45;;;2.25;;
67554;SDS011;54385;53.516;49.456;2024-03-29T13:08:10;2.30;;;1.90;;
67554;SDS011;54385;53.516;49.456;2024-03-29T13:10:38;2.58;;;2.28;;
67554;SDS011;54385;53.516;49.456;2024-03-29T13:13:05;2.40;;;2.20;;
67554;SDS011;54385;53.516;49.456;2024-03-29T13:15:35;3.20;;;2.08;;
67554;SDS011;54385;53.516;49.456;2024-03-29T13:18:03;2.45;;;2.20;;
67554;SDS011;54385;53.516;49.456;2024-03-29T13:20:31;2.45;;;2.25;;
67554;SDS011;54385;53.516;49.456;2024-03-29T13:22:58;3.10;;;2.45;;
67554;SDS011;54385;53.516;49.456;2024-03-29T13:25:25;2.72;;;2.30;;
67554;SDS011;54385;53.516;49.456;2024-03-29T13:27:52;2.95;;;2.40;;
67554;SDS011;54385;53.516;49.456;2024-03-29T13:30:21;2.38;;;2.17;;
67554;SDS011;54385;53.516;49.456;2024-03-29T13:32:48;2.78;;;2.10;;
67554;SDS011;54385;53.516;49.456;2024-03-29T13:35:15;2.63;;;2.30;;
67554;SDS011;54385;53.516;49.456;2024-03-29T13:37:42;3.10;;;2.50;;
67554;SDS011;54385;53.516;49.456;2024-03-29T13:40:11;2.80;;;2.42;;
67554;SDS011;54385;53.516;49.456;2024-03-29T13:42:38;2.47;;;2.20;;
67554;SDS011;54385;53.516;49.456;2024-03-29T13:45:05;2.28;;;2.05;;
67554;SDS011;54385;53.516;49.456;2024-03-29T13:47:33;2.63;;;2.22;;
67554;SDS011;54385;53.516;49.456;2024-03-29T13:50:01;2.70;;;2.30;;
67554;SDS011;54385;53.516;49.456;2024-03-29T13:52:28;2.55;;;2.13;;
67554;SDS011;54385;53.516;49.456;2024-03-29T13:54:54;2.30;;;2.10;;
67554;SDS011;54385;53.516;49.456;2024-03-29T13:57:21;2.80;;;2.50;;
67554;SDS011;54385;53.516;49.456;2024-03-29T13:59:47;2.45;;;2.00;;
67554;SDS011;54385;53.516;49.456;2024-03-29T14:02:17;2.30;;;1.90;;
67554;SDS011;54385;53.516;49.456;2024-03-29T14:04:44;2.85;;;2.55;;
67554;SDS011;54385;53.516;49.456;2024-03-29T14:07:12;2.50;;;2.28;;
67554;SDS011;54385;53.516;49.456;2024-03-29T14:09:40;2.38;;;1.90;;
67554;SDS011;54385;53.516;49.456;2024-03-29T14:12:08;2.65;;;2.20;;
67554;SDS011;54385;53.516;49.456;2024-03-29T14:14:35;2.90;;;2.20;;
67554;SDS011;54385;53.516;49.456;2024-03-29T14:17:02;2.15;;;1.95;;
67554;SDS011;54385;53.516;49.456;2024-03-29T14:19:34;2.50;;;2.30;;
67554;SDS011;54385;53.516;49.456;2024-03-29T14:22:05;2.72;;;2.30;;
67554;SDS011;54385;53.516;49.456;2024-03-29T14:24:32;2.53;;;1.90;;
67554;SDS011;54385;53.516;49.456;2024-03-29T14:27:02;2.40;;;2.03;;
67554;SDS011;54385;53.516;49.456;2024-03-29T14:29:29;2.75;;;2.00;;
67554;SDS011;54385;53.516;49.456;2024-03-29T14:31:57;3.33;;;2.33;;
67554;SDS011;54385;53.516;49.456;2024-03-29T14:34:24;2.92;;;2.25;;
67554;SDS011;54385;53.516;49.456;2024-03-29T14:36:50;2.72;;;2.10;;
67554;SDS011;54385;53.516;49.456;2024-03-29T14:39:17;2.30;;;2.10;;
67554;SDS011;54385;53.516;49.456;2024-03-29T14:41:44;2.05;;;1.85;;
67554;SDS011;54385;53.516;49.456;2024-03-29T14:44:12;2.60;;;2.20;;